sensor_id;sensor_type;location;lat;lon;timestamp;temperature;humidity
33863;DHT22;20158;51.436;-2.742;2023-06-10T00:00:09;22.30;52.60
33863;DHT22;20158;51.436;-2.742;2023-06-10T00:02:42;22.30;52.70
33863;DHT22;20158;51.436;-2.742;2023-06-10T00:05:14;22.30;52.80
33863;DHT22;20158;51.436;-2.742;2023-06-10T00:07:49;22.20;53.10
33863;DHT22;20158;51.436;-2.742;2023-06-10T00:10:15;22.10;52.30
33863;DHT22;20158;51.436;-2.742;2023-06-10T00:12:42;22.10;52.50
33863;DHT22;20158;51.436;-2.742;2023-06-10T00:15:09;22.00;52.40
33863;DHT22;20158;51.436;-2.742;2023-06-10T00:17:35;22.00;52.50
33863;DHT22;20158;51.436;-2.742;2023-06-10T00:20:09;21.90;52.50
33863;DHT22;20158;51.436;-2.742;2023-06-10T00:22:40;21.90;52.60
33863;DHT22;20158;51.436;-2.742;2023-06-10T00:25:11;21.80;52.50
33863;DHT22;20158;51.436;-2.742;2023-06-10T00:27:37;21.80;52.60
33863;DHT22;20158;51.436;-2.742;2023-06-10T00:30:04;21.70;52.50
33863;DHT22;20158;51.436;-2.742;2023-06-10T00:32:33;21.70;52.60
33863;DHT22;20158;51.436;-2.742;2023-06-10T00:35:03;21.60;52.60
33863;DHT22;20158;51.436;-2.742;2023-06-10T00:37:31;21.60;52.60
33863;DHT22;20158;51.436;-2.742;2023-06-10T00:40:01;21.60;52.80
33863;DHT22;20158;51.436;-2.742;2023-06-10T00:42:27;21.50;52.70
33863;DHT22;20158;51.436;-2.742;2023-06-10T00:44:54;21.40;52.60
33863;DHT22;20158;51.436;-2.742;2023-06-10T00:47:21;21.40;52.70
33863;DHT22;20158;51.436;-2.742;2023-06-10T00:49:49;21.40;52.80
33863;DHT22;20158;51.436;-2.742;2023-06-10T00:52:17;21.30;52.70
33863;DHT22;20158;51.436;-2.742;2023-06-10T00:54:47;21.20;52.60
33863;DHT22;20158;51.436;-2.742;2023-06-10T00:57:15;21.20;52.70
33863;DHT22;20158;51.436;-2.742;2023-06-10T00:59:47;21.20;52.80
33863;DHT22;20158;51.436;-2.742;2023-06-10T01:02:14;21.10;52.80
33863;DHT22;20158;51.436;-2.742;2023-06-10T01:04:40;21.10;52.90
33863;DHT22;20158;51.436;-2.742;2023-06-10T01:10:16;20.90;52.70
33863;DHT22;20158;51.436;-2.742;2023-06-10T01:12:59;20.90;52.90
33863;DHT22;20158;51.436;-2.742;2023-06-10T01:15:34;20.80;52.80
33863;DHT22;20158;51.436;-2.742;2023-06-10T01:18:01;20.80;52.80
33863;DHT22;20158;51.436;-2.742;2023-06-10T01:20:31;20.70;52.70
33863;DHT22;20158;51.436;-2.742;2023-06-10T01:22:59;20.70;52.80
33863;DHT22;20158;51.436;-2.742;2023-06-10T01:25:27;20.60;52.70
33863;DHT22;20158;51.436;-2.742;2023-06-10T01:33:38;20.50;52.80
33863;DHT22;20158;51.436;-2.742;2023-06-10T01:36:08;20.50;52.90
33863;DHT22;20158;51.436;-2.742;2023-06-10T01:38:44;20.50;52.90
33863;DHT22;20158;51.436;-2.742;2023-06-10T01:41:12;20.40;52.80
33863;DHT22;20158;51.436;-2.742;2023-06-10T01:43:45;20.40;52.90
33863;DHT22;20158;51.436;-2.742;2023-06-10T01:46:16;20.30;52.70
33863;DHT22;20158;51.436;-2.742;2023-06-10T01:48:46;20.30;52.90
33863;DHT22;20158;51.436;-2.742;2023-06-10T01:51:13;20.30;52.90
33863;DHT22;20158;51.436;-2.742;2023-06-10T01:53:45;20.20;52.90
33863;DHT22;20158;51.436;-2.742;2023-06-10T01:56:19;20.20;52.90
33863;DHT22;20158;51.436;-2.742;2023-06-10T01:58:54;20.20;53.00
33863;DHT22;20158;51.436;-2.742;2023-06-10T02:01:25;20.10;52.80
33863;DHT22;20158;51.436;-2.742;2023-06-10T02:03:52;20.10;53.00
33863;DHT22;20158;51.436;-2.742;2023-06-10T02:06:18;20.00;52.90
33863;DHT22;20158;51.436;-2.742;2023-06-10T02:08:44;20.00;53.00
33863;DHT22;20158;51.436;-2.742;2023-06-10T02:11:31;19.90;52.90
33863;DHT22;20158;51.436;-2.742;2023-06-10T02:14:00;19.90;53.00
33863;DHT22;20158;51.436;-2.742;2023-06-10T02:16:27;19.90;53.10
33863;DHT22;20158;51.436;-2.742;2023-06-10T02:18:58;19.80;53.00
33863;DHT22;20158;51.436;-2.742;2023-06-10T02:21:24;19.80;53.10
33863;DHT22;20158;51.436;-2.742;2023-06-10T02:23:57;19.70;53.00
33863;DHT22;20158;51.436;-2.742;2023-06-10T02:26:23;19.70;53.00
33863;DHT22;20158;51.436;-2.742;2023-06-10T02:28:54;19.70;53.10
33863;DHT22;20158;51.436;-2.742;2023-06-10T02:31:24;19.70;53.20
33863;DHT22;20158;51.436;-2.742;2023-06-10T02:33:54;19.60;53.10
33863;DHT22;20158;51.436;-2.742;2023-06-10T02:36:31;19.60;53.20
33863;DHT22;20158;51.436;-2.742;2023-06-10T02:39:02;19.60;53.20
33863;DHT22;20158;51.436;-2.742;2023-06-10T02:41:29;19.60;53.30
33863;DHT22;20158;51.436;-2.742;2023-06-10T02:43:56;19.60;53.30
33863;DHT22;20158;51.436;-2.742;2023-06-10T02:46:23;19.50;53.20
33863;DHT22;20158;51.436;-2.742;2023-06-10T02:48:58;19.50;53.20
33863;DHT22;20158;51.436;-2.742;2023-06-10T02:51:25;19.40;53.10
33863;DHT22;20158;51.436;-2.742;2023-06-10T02:53:57;19.50;53.30
33863;DHT22;20158;51.436;-2.742;2023-06-10T02:56:30;19.50;53.30
33863;DHT22;20158;51.436;-2.742;2023-06-10T02:59:00;19.50;53.30
33863;DHT22;20158;51.436;-2.742;2023-06-10T03:01:27;19.50;53.40
33863;DHT22;20158;51.436;-2.742;2023-06-10T03:03:59;19.40;53.20
33863;DHT22;20158;51.436;-2.742;2023-06-10T03:06:29;19.40;53.30
33863;DHT22;20158;51.436;-2.742;2023-06-10T03:09:07;19.40;53.30
33863;DHT22;20158;51.436;-2.742;2023-06-10T03:11:37;19.40;53.30
33863;DHT22;20158;51.436;-2.742;2023-06-10T03:14:06;19.40;53.40
33863;DHT22;20158;51.436;-2.742;2023-06-10T03:16:38;19.30;53.20
33863;DHT22;20158;51.436;-2.742;2023-06-10T03:19:09;19.30;53.30
33863;DHT22;20158;51.436;-2.742;2023-06-10T03:21:43;19.30;53.40
33863;DHT22;20158;51.436;-2.742;2023-06-10T03:24:13;19.30;53.40
33863;DHT22;20158;51.436;-2.742;2023-06-10T03:26:39;19.30;53.50
33863;DHT22;20158;51.436;-2.742;2023-06-10T03:29:13;19.30;53.50
33863;DHT22;20158;51.436;-2.742;2023-06-10T03:31:45;19.20;53.40
33863;DHT22;20158;51.436;-2.742;2023-06-10T03:34:12;19.20;54.00
33863;DHT22;20158;51.436;-2.742;2023-06-10T03:36:38;19.20;53.40
33863;DHT22;20158;51.436;-2.742;2023-06-10T03:39:10;19.20;53.50
33863;DHT22;20158;51.436;-2.742;2023-06-10T03:41:45;19.20;53.50
33863;DHT22;20158;51.436;-2.742;2023-06-10T03:44:16;19.20;53.50
33863;DHT22;20158;51.436;-2.742;2023-06-10T03:46:45;19.20;53.50
33863;DHT22;20158;51.436;-2.742;2023-06-10T03:49:11;19.20;53.60
33863;DHT22;20158;51.436;-2.742;2023-06-10T03:51:38;19.10;53.40
33863;DHT22;20158;51.436;-2.742;2023-06-10T03:54:05;19.20;53.70
33863;DHT22;20158;51.436;-2.742;2023-06-10T03:56:32;19.20;53.70
33863;DHT22;20158;51.436;-2.742;2023-06-10T03:58:58;19.10;53.60
33863;DHT22;20158;51.436;-2.742;2023-06-10T04:01:24;19.10;53.60
33863;DHT22;20158;51.436;-2.742;2023-06-10T04:03:51;19.10;53.60
33863;DHT22;20158;51.436;-2.742;2023-06-10T04:06:20;19.10;53.70
33863;DHT22;20158;51.436;-2.742;2023-06-10T04:08:48;19.10;53.70
33863;DHT22;20158;51.436;-2.742;2023-06-10T04:11:20;19.10;53.70
33863;DHT22;20158;51.436;-2.742;2023-06-10T04:13:50;19.00;53.60
33863;DHT22;20158;51.436;-2.742;2023-06-10T04:16:18;19.10;53.80
33863;DHT22;20158;51.436;-2.742;2023-06-10T04:18:44;19.00;53.60
33863;DHT22;20158;51.436;-2.742;2023-06-10T04:21:11;19.00;53.70
33863;DHT22;20158;51.436;-2.742;2023-06-10T04:23:43;19.00;53.70
33863;DHT22;20158;51.436;-2.742;2023-06-10T04:26:13;19.00;53.70
33863;DHT22;20158;51.436;-2.742;2023-06-10T04:28:39;19.00;53.80
33863;DHT22;20158;51.436;-2.742;2023-06-10T04:31:05;19.00;53.80
33863;DHT22;20158;51.436;-2.742;2023-06-10T04:33:34;19.00;53.90
33863;DHT22;20158;51.436;-2.742;2023-06-10T04:36:06;19.10;54.10
33863;DHT22;20158;51.436;-2.742;2023-06-10T04:38:33;19.00;53.90
33863;DHT22;20158;51.436;-2.742;2023-06-10T04:41:00;19.10;54.10
33863;DHT22;20158;51.436;-2.742;2023-06-10T04:43:29;19.10;54.60
33863;DHT22;20158;51.436;-2.742;2023-06-10T04:46:07;19.10;54.10
33863;DHT22;20158;51.436;-2.742;2023-06-10T04:48:36;19.10;54.00
33863;DHT22;20158;51.436;-2.742;2023-06-10T04:51:13;19.10;54.00
33863;DHT22;20158;51.436;-2.742;2023-06-10T04:53:40;19.10;53.90
33863;DHT22;20158;51.436;-2.742;2023-06-10T04:56:06;19.20;54.10
33863;DHT22;20158;51.436;-2.742;2023-06-10T04:58:39;19.20;54.10
33863;DHT22;20158;51.436;-2.742;2023-06-10T05:01:11;19.20;54.10
33863;DHT22;20158;51.436;-2.742;2023-06-10T05:03:43;19.20;54.00
33863;DHT22;20158;51.436;-2.742;2023-06-10T05:06:09;19.30;54.10
33863;DHT22;20158;51.436;-2.742;2023-06-10T05:08:38;19.40;54.30
33863;DHT22;20158;51.436;-2.742;2023-06-10T05:11:04;19.40;54.20
33863;DHT22;20158;51.436;-2.742;2023-06-10T05:13:31;19.40;54.10
33863;DHT22;20158;51.436;-2.742;2023-06-10T05:15:59;19.50;54.90
33863;DHT22;20158;51.436;-2.742;2023-06-10T05:18:29;19.50;54.20
33863;DHT22;20158;51.436;-2.742;2023-06-10T05:20:55;19.50;54.20
33863;DHT22;20158;51.436;-2.742;2023-06-10T05:23:23;19.50;54.20
33863;DHT22;20158;51.436;-2.742;2023-06-10T05:25:52;19.50;54.10
33863;DHT22;20158;51.436;-2.742;2023-06-10T05:28:18;19.60;54.30
33863;DHT22;20158;51.436;-2.742;2023-06-10T05:30:48;19.60;54.20
33863;DHT22;20158;51.436;-2.742;2023-06-10T05:33:14;19.70;54.30
33863;DHT22;20158;51.436;-2.742;2023-06-10T05:35:40;19.70;54.20
33863;DHT22;20158;51.436;-2.742;2023-06-10T05:38:06;19.80;54.30
33863;DHT22;20158;51.436;-2.742;2023-06-10T05:40:35;19.80;54.30
33863;DHT22;20158;51.436;-2.742;2023-06-10T05:43:04;19.80;54.20
33863;DHT22;20158;51.436;-2.742;2023-06-10T05:45:30;19.90;54.30
33863;DHT22;20158;51.436;-2.742;2023-06-10T05:47:56;19.90;54.20
33863;DHT22;20158;51.436;-2.742;2023-06-10T05:50:24;19.90;54.20
33863;DHT22;20158;51.436;-2.742;2023-06-10T05:52:50;20.00;54.40
33863;DHT22;20158;51.436;-2.742;2023-06-10T05:55:20;20.00;54.40
33863;DHT22;20158;51.436;-2.742;2023-06-10T05:57:47;20.00;54.30
33863;DHT22;20158;51.436;-2.742;2023-06-10T06:00:18;20.10;54.40
33863;DHT22;20158;51.436;-2.742;2023-06-10T06:02:45;20.10;54.20
33863;DHT22;20158;51.436;-2.742;2023-06-10T06:05:14;20.20;54.30
33863;DHT22;20158;51.436;-2.742;2023-06-10T06:07:40;20.20;54.20
33863;DHT22;20158;51.436;-2.742;2023-06-10T06:10:06;20.30;54.30
33863;DHT22;20158;51.436;-2.742;2023-06-10T06:12:33;20.40;54.30
33863;DHT22;20158;51.436;-2.742;2023-06-10T06:15:05;20.40;54.30
33863;DHT22;20158;51.436;-2.742;2023-06-10T06:17:41;20.50;54.30
33863;DHT22;20158;51.436;-2.742;2023-06-10T06:20:13;20.50;54.20
33863;DHT22;20158;51.436;-2.742;2023-06-10T06:22:39;20.60;54.30
33863;DHT22;20158;51.436;-2.742;2023-06-10T06:25:06;20.70;54.30
33863;DHT22;20158;51.436;-2.742;2023-06-10T06:27:32;20.70;54.20
33863;DHT22;20158;51.436;-2.742;2023-06-10T06:29:58;20.80;54.30
33863;DHT22;20158;51.436;-2.742;2023-06-10T06:32:27;20.80;54.20
33863;DHT22;20158;51.436;-2.742;2023-06-10T06:34:53;20.80;54.20
33863;DHT22;20158;51.436;-2.742;2023-06-10T06:37:25;20.90;54.30
33863;DHT22;20158;51.436;-2.742;2023-06-10T06:39:59;21.00;54.30
33863;DHT22;20158;51.436;-2.742;2023-06-10T06:42:26;21.10;54.20
33863;DHT22;20158;51.436;-2.742;2023-06-10T06:45:00;21.30;54.40
33863;DHT22;20158;51.436;-2.742;2023-06-10T06:47:26;21.40;54.30
33863;DHT22;20158;51.436;-2.742;2023-06-10T06:49:52;21.60;54.30
33863;DHT22;20158;51.436;-2.742;2023-06-10T06:52:18;21.80;54.40
33863;DHT22;20158;51.436;-2.742;2023-06-10T06:54:48;21.90;54.50
33863;DHT22;20158;51.436;-2.742;2023-06-10T06:57:19;22.00;55.00
33863;DHT22;20158;51.436;-2.742;2023-06-10T06:59:48;22.20;55.60
33863;DHT22;20158;51.436;-2.742;2023-06-10T07:02:14;22.40;56.10
33863;DHT22;20158;51.436;-2.742;2023-06-10T07:04:40;22.60;56.30
33863;DHT22;20158;51.436;-2.742;2023-06-10T07:07:08;22.80;56.30
33863;DHT22;20158;51.436;-2.742;2023-06-10T07:09:40;22.90;56.20
33863;DHT22;20158;51.436;-2.742;2023-06-10T07:12:06;23.10;56.20
33863;DHT22;20158;51.436;-2.742;2023-06-10T07:14:36;23.20;56.00
33863;DHT22;20158;51.436;-2.742;2023-06-10T07:17:02;23.40;56.10
33863;DHT22;20158;51.436;-2.742;2023-06-10T07:19:28;23.50;55.90
33863;DHT22;20158;51.436;-2.742;2023-06-10T07:21:54;23.70;55.90
33863;DHT22;20158;51.436;-2.742;2023-06-10T07:24:41;23.90;56.00
33863;DHT22;20158;51.436;-2.742;2023-06-10T07:27:13;24.10;56.00
33863;DHT22;20158;51.436;-2.742;2023-06-10T07:29:39;24.50;56.20
33863;DHT22;20158;51.436;-2.742;2023-06-10T07:32:08;24.70;55.80
33863;DHT22;20158;51.436;-2.742;2023-06-10T07:34:43;24.90;55.70
33863;DHT22;20158;51.436;-2.742;2023-06-10T07:37:09;24.90;55.30
33863;DHT22;20158;51.436;-2.742;2023-06-10T07:39:35;25.00;55.30
33863;DHT22;20158;51.436;-2.742;2023-06-10T07:42:09;25.10;55.10
33863;DHT22;20158;51.436;-2.742;2023-06-10T07:44:38;25.10;54.80
33863;DHT22;20158;51.436;-2.742;2023-06-10T07:47:12;25.10;54.60
33863;DHT22;20158;51.436;-2.742;2023-06-10T07:49:41;25.20;54.50
33863;DHT22;20158;51.436;-2.742;2023-06-10T07:52:08;25.20;54.40
33863;DHT22;20158;51.436;-2.742;2023-06-10T07:54:34;25.30;54.20
33863;DHT22;20158;51.436;-2.742;2023-06-10T07:57:00;25.40;53.80
33863;DHT22;20158;51.436;-2.742;2023-06-10T07:59:26;25.70;53.50
33863;DHT22;20158;51.436;-2.742;2023-06-10T08:02:15;25.90;53.10
33863;DHT22;20158;51.436;-2.742;2023-06-10T08:04:44;26.00;52.80
33863;DHT22;20158;51.436;-2.742;2023-06-10T08:07:17;26.00;52.80
33863;DHT22;20158;51.436;-2.742;2023-06-10T08:09:44;26.10;52.70
33863;DHT22;20158;51.436;-2.742;2023-06-10T08:12:10;26.20;52.60
33863;DHT22;20158;51.436;-2.742;2023-06-10T08:14:42;26.40;52.50
33863;DHT22;20158;51.436;-2.742;2023-06-10T08:17:08;26.60;52.30
33863;DHT22;20158;51.436;-2.742;2023-06-10T08:19:34;26.70;52.00
33863;DHT22;20158;51.436;-2.742;2023-06-10T08:22:00;26.80;51.70
33863;DHT22;20158;51.436;-2.742;2023-06-10T08:24:29;27.00;51.50
33863;DHT22;20158;51.436;-2.742;2023-06-10T08:26:55;27.10;51.20
33863;DHT22;20158;51.436;-2.742;2023-06-10T08:29:23;27.30;51.00
33863;DHT22;20158;51.436;-2.742;2023-06-10T08:31:49;27.40;50.70
33863;DHT22;20158;51.436;-2.742;2023-06-10T08:34:15;27.50;50.50
33863;DHT22;20158;51.436;-2.742;2023-06-10T08:36:42;27.70;50.50
33863;DHT22;20158;51.436;-2.742;2023-06-10T08:39:09;27.80;50.10
33863;DHT22;20158;51.436;-2.742;2023-06-10T08:41:43;28.00;49.90
33863;DHT22;20158;51.436;-2.742;2023-06-10T08:44:33;28.20;49.60
33863;DHT22;20158;51.436;-2.742;2023-06-10T08:47:12;28.40;49.30
33863;DHT22;20158;51.436;-2.742;2023-06-10T08:49:46;28.70;49.00
33863;DHT22;20158;51.436;-2.742;2023-06-10T08:52:20;28.80;48.60
33863;DHT22;20158;51.436;-2.742;2023-06-10T08:55:03;29.00;48.30
33863;DHT22;20158;51.436;-2.742;2023-06-10T08:57:30;29.10;48.00
33863;DHT22;20158;51.436;-2.742;2023-06-10T08:59:57;29.30;47.90
33863;DHT22;20158;51.436;-2.742;2023-06-10T09:02:24;29.40;47.70
33863;DHT22;20158;51.436;-2.742;2023-06-10T09:04:56;29.50;47.50
33863;DHT22;20158;51.436;-2.742;2023-06-10T09:07:23;29.60;47.30
33863;DHT22;20158;51.436;-2.742;2023-06-10T09:09:51;29.80;47.30
33863;DHT22;20158;51.436;-2.742;2023-06-10T09:12:22;29.90;47.00
33863;DHT22;20158;51.436;-2.742;2023-06-10T09:15:00;30.00;46.80
33863;DHT22;20158;51.436;-2.742;2023-06-10T09:17:29;30.10;46.50
33863;DHT22;20158;51.436;-2.742;2023-06-10T09:20:00;30.20;46.40
33863;DHT22;20158;51.436;-2.742;2023-06-10T09:22:27;30.40;46.30
33863;DHT22;20158;51.436;-2.742;2023-06-10T09:25:08;30.40;45.70
33863;DHT22;20158;51.436;-2.742;2023-06-10T09:27:45;30.40;45.00
33863;DHT22;20158;51.436;-2.742;2023-06-10T09:30:28;30.30;44.90
33863;DHT22;20158;51.436;-2.742;2023-06-10T09:33:02;30.00;44.80
33863;DHT22;20158;51.436;-2.742;2023-06-10T09:35:48;29.70;44.80
33863;DHT22;20158;51.436;-2.742;2023-06-10T09:38:22;29.50;45.00
33863;DHT22;20158;51.436;-2.742;2023-06-10T09:40:52;29.40;45.10
33863;DHT22;20158;51.436;-2.742;2023-06-10T09:43:18;29.40;45.00
33863;DHT22;20158;51.436;-2.742;2023-06-10T09:45:49;29.50;45.00
33863;DHT22;20158;51.436;-2.742;2023-06-10T09:48:18;29.50;44.70
33863;DHT22;20158;51.436;-2.742;2023-06-10T09:50:45;29.60;44.70
33863;DHT22;20158;51.436;-2.742;2023-06-10T09:53:12;29.50;44.50
33863;DHT22;20158;51.436;-2.742;2023-06-10T09:55:44;29.60;44.50
33863;DHT22;20158;51.436;-2.742;2023-06-10T09:58:11;29.50;44.50
33863;DHT22;20158;51.436;-2.742;2023-06-10T10:00:37;29.50;44.60
33863;DHT22;20158;51.436;-2.742;2023-06-10T10:03:05;29.50;44.50
33863;DHT22;20158;51.436;-2.742;2023-06-10T10:05:32;29.60;44.50
33863;DHT22;20158;51.436;-2.742;2023-06-10T10:08:18;29.60;44.30
33863;DHT22;20158;51.436;-2.742;2023-06-10T10:11:05;29.60;44.20
33863;DHT22;20158;51.436;-2.742;2023-06-10T10:13:34;29.60;44.20
33863;DHT22;20158;51.436;-2.742;2023-06-10T10:16:05;29.60;44.30
33863;DHT22;20158;51.436;-2.742;2023-06-10T10:18:33;29.60;44.20
33863;DHT22;20158;51.436;-2.742;2023-06-10T10:21:13;29.60;44.30
33863;DHT22;20158;51.436;-2.742;2023-06-10T10:26:17;29.70;44.40
33863;DHT22;20158;51.436;-2.742;2023-06-10T10:28:51;29.80;44.40
33863;DHT22;20158;51.436;-2.742;2023-06-10T10:31:26;29.80;44.20
33863;DHT22;20158;51.436;-2.742;2023-06-10T10:33:58;29.90;44.10
33863;DHT22;20158;51.436;-2.742;2023-06-10T10:36:27;30.00;44.00
33863;DHT22;20158;51.436;-2.742;2023-06-10T10:39:09;30.00;43.90
33863;DHT22;20158;51.436;-2.742;2023-06-10T10:41:37;30.10;43.80
33863;DHT22;20158;51.436;-2.742;2023-06-10T10:44:16;30.20;43.80
33863;DHT22;20158;51.436;-2.742;2023-06-10T10:46:49;30.20;43.60
33863;DHT22;20158;51.436;-2.742;2023-06-10T10:49:19;30.20;43.50
33863;DHT22;20158;51.436;-2.742;2023-06-10T10:51:56;30.20;43.60
33863;DHT22;20158;51.436;-2.742;2023-06-10T10:54:45;30.20;44.00
33863;DHT22;20158;51.436;-2.742;2023-06-10T10:57:14;30.20;43.90
33863;DHT22;20158;51.436;-2.742;2023-06-10T10:59:56;30.40;44.00
33863;DHT22;20158;51.436;-2.742;2023-06-10T11:02:45;30.60;43.70
33863;DHT22;20158;51.436;-2.742;2023-06-10T11:05:16;30.80;43.50
33863;DHT22;20158;51.436;-2.742;2023-06-10T11:07:52;31.00;43.40
33863;DHT22;20158;51.436;-2.742;2023-06-10T11:10:29;31.10;43.30
33863;DHT22;20158;51.436;-2.742;2023-06-10T11:12:59;31.20;43.10
33863;DHT22;20158;51.436;-2.742;2023-06-10T11:15:27;31.20;43.00
33863;DHT22;20158;51.436;-2.742;2023-06-10T11:18:20;31.20;42.80
33863;DHT22;20158;51.436;-2.742;2023-06-10T11:28:41;31.50;42.70
33863;DHT22;20158;51.436;-2.742;2023-06-10T11:31:18;31.60;42.70
33863;DHT22;20158;51.436;-2.742;2023-06-10T11:33:46;31.60;42.70
33863;DHT22;20158;51.436;-2.742;2023-06-10T11:36:13;31.60;42.80
33863;DHT22;20158;51.436;-2.742;2023-06-10T11:38:48;31.60;42.80
33863;DHT22;20158;51.436;-2.742;2023-06-10T11:41:14;31.70;42.80
33863;DHT22;20158;51.436;-2.742;2023-06-10T11:43:46;31.80;42.80
33863;DHT22;20158;51.436;-2.742;2023-06-10T11:46:19;31.80;42.70
33863;DHT22;20158;51.436;-2.742;2023-06-10T11:48:55;32.00;42.60
33863;DHT22;20158;51.436;-2.742;2023-06-10T11:51:22;32.30;42.40
33863;DHT22;20158;51.436;-2.742;2023-06-10T11:53:52;32.50;42.00
33863;DHT22;20158;51.436;-2.742;2023-06-10T11:56:26;32.60;41.90
33863;DHT22;20158;51.436;-2.742;2023-06-10T11:59:07;32.60;41.80
33863;DHT22;20158;51.436;-2.742;2023-06-10T12:01:36;32.50;41.80
33863;DHT22;20158;51.436;-2.742;2023-06-10T12:04:16;32.40;42.00
33863;DHT22;20158;51.436;-2.742;2023-06-10T12:06:51;32.30;42.20
33863;DHT22;20158;51.436;-2.742;2023-06-10T12:09:22;32.10;42.30
33863;DHT22;20158;51.436;-2.742;2023-06-10T12:12:02;32.00;42.50
33863;DHT22;20158;51.436;-2.742;2023-06-10T12:20:00;32.10;42.40
33863;DHT22;20158;51.436;-2.742;2023-06-10T12:22:27;32.20;42.50
33863;DHT22;20158;51.436;-2.742;2023-06-10T12:25:08;32.10;42.40
33863;DHT22;20158;51.436;-2.742;2023-06-10T12:27:39;32.00;42.50
33863;DHT22;20158;51.436;-2.742;2023-06-10T12:30:23;32.00;42.50
33863;DHT22;20158;51.436;-2.742;2023-06-10T12:32:51;32.10;42.50
33863;DHT22;20158;51.436;-2.742;2023-06-10T12:35:30;32.20;42.30
33863;DHT22;20158;51.436;-2.742;2023-06-10T12:38:03;32.30;42.30
33863;DHT22;20158;51.436;-2.742;2023-06-10T12:40:34;32.30;42.30
33863;DHT22;20158;51.436;-2.742;2023-06-10T12:43:04;32.20;42.40
33863;DHT22;20158;51.436;-2.742;2023-06-10T12:45:38;32.10;42.60
33863;DHT22;20158;51.436;-2.742;2023-06-10T12:48:11;32.10;42.80
33863;DHT22;20158;51.436;-2.742;2023-06-10T12:50:40;32.10;42.90
33863;DHT22;20158;51.436;-2.742;2023-06-10T12:53:07;32.00;43.10
33863;DHT22;20158;51.436;-2.742;2023-06-10T12:55:33;32.10;43.20
33863;DHT22;20158;51.436;-2.742;2023-06-10T12:58:05;32.00;43.10
33863;DHT22;20158;51.436;-2.742;2023-06-10T13:00:31;32.10;43.10
33863;DHT22;20158;51.436;-2.742;2023-06-10T13:03:01;32.10;42.90
33863;DHT22;20158;51.436;-2.742;2023-06-10T13:05:28;32.10;42.90
33863;DHT22;20158;51.436;-2.742;2023-06-10T13:07:58;32.20;42.90
33863;DHT22;20158;51.436;-2.742;2023-06-10T13:10:24;32.20;42.70
33863;DHT22;20158;51.436;-2.742;2023-06-10T13:12:52;32.30;42.70
33863;DHT22;20158;51.436;-2.742;2023-06-10T13:15:18;32.30;42.60
33863;DHT22;20158;51.436;-2.742;2023-06-10T13:17:45;32.40;42.70
33863;DHT22;20158;51.436;-2.742;2023-06-10T13:20:24;32.30;42.50
33863;DHT22;20158;51.436;-2.742;2023-06-10T13:22:59;32.30;42.60
33863;DHT22;20158;51.436;-2.742;2023-06-10T13:25:25;32.20;42.60
33863;DHT22;20158;51.436;-2.742;2023-06-10T13:27:54;32.10;42.70
33863;DHT22;20158;51.436;-2.742;2023-06-10T13:30:24;32.00;42.70
33863;DHT22;20158;51.436;-2.742;2023-06-10T13:32:56;31.90;42.80
33863;DHT22;20158;51.436;-2.742;2023-06-10T13:35:24;31.80;42.90
33863;DHT22;20158;51.436;-2.742;2023-06-10T13:37:53;31.70;43.00
33863;DHT22;20158;51.436;-2.742;2023-06-10T13:40:19;31.60;43.10
33863;DHT22;20158;51.436;-2.742;2023-06-10T13:42:46;31.50;43.20
33863;DHT22;20158;51.436;-2.742;2023-06-10T13:45:16;31.40;43.30
33863;DHT22;20158;51.436;-2.742;2023-06-10T13:47:43;31.40;43.40
33863;DHT22;20158;51.436;-2.742;2023-06-10T13:50:17;31.30;43.50
33863;DHT22;20158;51.436;-2.742;2023-06-10T13:52:46;31.30;43.60
33863;DHT22;20158;51.436;-2.742;2023-06-10T13:55:13;31.20;43.50
33863;DHT22;20158;51.436;-2.742;2023-06-10T13:57:41;31.20;43.70
33863;DHT22;20158;51.436;-2.742;2023-06-10T14:00:08;31.20;43.70
33863;DHT22;20158;51.436;-2.742;2023-06-10T14:02:45;31.20;43.80
33863;DHT22;20158;51.436;-2.742;2023-06-10T14:05:18;31.10;43.80
33863;DHT22;20158;51.436;-2.742;2023-06-10T14:07:44;31.00;43.80
33863;DHT22;20158;51.436;-2.742;2023-06-10T14:10:10;31.00;43.90
33863;DHT22;20158;51.436;-2.742;2023-06-10T14:12:39;30.90;44.00
33863;DHT22;20158;51.436;-2.742;2023-06-10T14:15:08;30.80;44.20
33863;DHT22;20158;51.436;-2.742;2023-06-10T14:17:34;30.70;44.40
33863;DHT22;20158;51.436;-2.742;2023-06-10T14:20:00;30.60;44.50
33863;DHT22;20158;51.436;-2.742;2023-06-10T14:22:29;30.50;44.70
33863;DHT22;20158;51.436;-2.742;2023-06-10T14:24:58;30.50;44.90
33863;DHT22;20158;51.436;-2.742;2023-06-10T14:27:24;30.50;45.00
33863;DHT22;20158;51.436;-2.742;2023-06-10T14:29:50;30.40;45.00
33863;DHT22;20158;51.436;-2.742;2023-06-10T14:32:22;30.40;45.00
33863;DHT22;20158;51.436;-2.742;2023-06-10T14:34:48;30.40;45.20
33863;DHT22;20158;51.436;-2.742;2023-06-10T14:37:17;30.40;45.30
33863;DHT22;20158;51.436;-2.742;2023-06-10T14:39:43;30.40;45.40
33863;DHT22;20158;51.436;-2.742;2023-06-10T14:42:09;30.40;45.30
33863;DHT22;20158;51.436;-2.742;2023-06-10T14:44:59;30.40;45.30
33863;DHT22;20158;51.436;-2.742;2023-06-10T14:47:34;30.40;45.20
33863;DHT22;20158;51.436;-2.742;2023-06-10T14:50:00;30.40;45.30
33863;DHT22;20158;51.436;-2.742;2023-06-10T14:52:32;30.30;45.30
33863;DHT22;20158;51.436;-2.742;2023-06-10T14:55:01;30.20;45.30
33863;DHT22;20158;51.436;-2.742;2023-06-10T14:57:33;30.10;45.50
33863;DHT22;20158;51.436;-2.742;2023-06-10T14:59:59;30.00;45.80
33863;DHT22;20158;51.436;-2.742;2023-06-10T15:02:31;29.90;45.90
33863;DHT22;20158;51.436;-2.742;2023-06-10T15:05:06;29.80;46.20
33863;DHT22;20158;51.436;-2.742;2023-06-10T15:07:33;29.60;46.90
33863;DHT22;20158;51.436;-2.742;2023-06-10T15:10:01;29.50;46.50
33863;DHT22;20158;51.436;-2.742;2023-06-10T15:12:30;29.40;46.80
33863;DHT22;20158;51.436;-2.742;2023-06-10T15:14:56;29.30;47.10
33863;DHT22;20158;51.436;-2.742;2023-06-10T15:17:22;29.20;47.50
33863;DHT22;20158;51.436;-2.742;2023-06-10T15:19:48;29.10;47.70
33863;DHT22;20158;51.436;-2.742;2023-06-10T15:22:21;29.00;48.00
33863;DHT22;20158;51.436;-2.742;2023-06-10T15:25:03;29.00;48.20
33863;DHT22;20158;51.436;-2.742;2023-06-10T15:27:35;28.90;49.00
33863;DHT22;20158;51.436;-2.742;2023-06-10T15:30:02;28.80;48.60
33863;DHT22;20158;51.436;-2.742;2023-06-10T15:32:31;28.70;48.80
33863;DHT22;20158;51.436;-2.742;2023-06-10T15:34:57;28.70;49.00
33863;DHT22;20158;51.436;-2.742;2023-06-10T15:37:24;28.70;49.10
33863;DHT22;20158;51.436;-2.742;2023-06-10T15:39:59;28.70;49.30
33863;DHT22;20158;51.436;-2.742;2023-06-10T15:42:31;28.70;49.60
33863;DHT22;20158;51.436;-2.742;2023-06-10T15:44:57;28.80;49.70
33863;DHT22;20158;51.436;-2.742;2023-06-10T15:47:26;28.80;49.70
33863;DHT22;20158;51.436;-2.742;2023-06-10T15:49:52;28.90;49.70
33863;DHT22;20158;51.436;-2.742;2023-06-10T15:52:18;29.00;49.70
33863;DHT22;20158;51.436;-2.742;2023-06-10T15:55:00;29.10;49.60
33863;DHT22;20158;51.436;-2.742;2023-06-10T15:57:29;29.20;49.50